Main page
METAR-TAF:

METAR-TAF

Airports :

Yap International Airport

Yap, Micronesia

latitude: 09-29N, longitude: 138-05E, elevation: 28 m

Current weather observation

The report was made 26 minutes ago, at 04:52 UTC
Wind 12 kt from the East/Northeast
Temperature 30°C
Humidity 79%
Pressure 1008 hPa
Visibility: 19.3 km
Few clouds at a height of 1800 ft
Scattered clouds at a height of 30000 ft

METAR: PTYA 060452Z 06012KT 12SM FEW018 SCT300 30/26 A2977 RMK SLP083 T02980255

Time: 15:18 (05:18 UTC)

Forecast

The report was made 5 hours and 46 minutes ago, at 23:32 UTC
Forecast valid from 06 at 00 UTC to 06 at 24 UTC
Wind 10 kt from the East/Northeast
Visibility: 10 km
Scattered clouds at a height of 1600 ft
Broken clouds at a height of 12000 ft
showers in vicinity

TAF: PTYA 052332Z 0600/0624 07010KT P6SM VCSH SCT016 BKN120

Weather observations and forecasts of more than 4000 airports (METAR and TAF reports).

The available stations are represented by yellow and red dots on the map.

Hover mouse over dot to see the name of the station.

Then click to see weather observations and forecasts.

To change the map : click on the green buttons with a black cross to zoom in, on the green button with a dash to zoom out, or on the green arrows for adjacent maps.


METAR-TAF: